sensor_id;sensor_type;location;lat;lon;timestamp;P1;durP1;ratioP1;P2;durP2;ratioP2
20776;SDS011;10548;47.504;8.248;2023-09-07T00:01:37;10.60;;;6.50;;
20776;SDS011;10548;47.504;8.248;2023-09-07T00:04:04;7.27;;;5.90;;
20776;SDS011;10548;47.504;8.248;2023-09-07T00:06:33;9.07;;;5.87;;
20776;SDS011;10548;47.504;8.248;2023-09-07T00:09:01;12.50;;;5.80;;
20776;SDS011;10548;47.504;8.248;2023-09-07T00:11:32;7.13;;;5.87;;
20776;SDS011;10548;47.504;8.248;2023-09-07T00:13:59;8.53;;;5.63;;
20776;SDS011;10548;47.504;8.248;2023-09-07T00:16:26;8.80;;;5.70;;
20776;SDS011;10548;47.504;8.248;2023-09-07T00:18:54;6.27;;;5.23;;
20776;SDS011;10548;47.504;8.248;2023-09-07T00:21:21;6.87;;;5.00;;
20776;SDS011;10548;47.504;8.248;2023-09-07T00:23:48;8.07;;;4.77;;
20776;SDS011;10548;47.504;8.248;2023-09-07T00:26:15;8.67;;;5.47;;
20776;SDS011;10548;47.504;8.248;2023-09-07T00:28:42;12.73;;;5.50;;
20776;SDS011;10548;47.504;8.248;2023-09-07T00:31:10;12.00;;;5.33;;
20776;SDS011;10548;47.504;8.248;2023-09-07T00:33:37;8.97;;;5.13;;
20776;SDS011;10548;47.504;8.248;2023-09-07T00:36:04;9.13;;;5.23;;
20776;SDS011;10548;47.504;8.248;2023-09-07T00:38:31;8.10;;;5.20;;
20776;SDS011;10548;47.504;8.248;2023-09-07T00:40:59;7.20;;;5.23;;
20776;SDS011;10548;47.504;8.248;2023-09-07T00:43:26;8.33;;;5.23;;
20776;SDS011;10548;47.504;8.248;2023-09-07T00:45:53;9.13;;;4.80;;
20776;SDS011;10548;47.504;8.248;2023-09-07T00:48:21;7.47;;;5.00;;
20776;SDS011;10548;47.504;8.248;2023-09-07T00:50:48;8.20;;;5.13;;
20776;SDS011;10548;47.504;8.248;2023-09-07T00:53:16;6.60;;;5.00;;
20776;SDS011;10548;47.504;8.248;2023-09-07T00:55:44;9.17;;;5.43;;
20776;SDS011;10548;47.504;8.248;2023-09-07T00:58:12;10.33;;;5.53;;
20776;SDS011;10548;47.504;8.248;2023-09-07T01:00:40;7.17;;;5.13;;
20776;SDS011;10548;47.504;8.248;2023-09-07T01:03:07;8.10;;;5.40;;
20776;SDS011;10548;47.504;8.248;2023-09-07T01:05:44;10.57;;;5.77;;
20776;SDS011;10548;47.504;8.248;2023-09-07T01:08:23;8.47;;;5.47;;
20776;SDS011;10548;47.504;8.248;2023-09-07T01:10:53;11.43;;;6.10;;
20776;SDS011;10548;47.504;8.248;2023-09-07T01:13:20;6.87;;;5.53;;
20776;SDS011;10548;47.504;8.248;2023-09-07T01:15:47;8.80;;;5.60;;
20776;SDS011;10548;47.504;8.248;2023-09-07T01:18:15;9.10;;;5.63;;
20776;SDS011;10548;47.504;8.248;2023-09-07T01:21:08;8.73;;;5.70;;
20776;SDS011;10548;47.504;8.248;2023-09-07T01:23:40;8.33;;;5.20;;
20776;SDS011;10548;47.504;8.248;2023-09-07T01:26:08;8.40;;;5.80;;
20776;SDS011;10548;47.504;8.248;2023-09-07T01:28:36;7.43;;;5.33;;
20776;SDS011;10548;47.504;8.248;2023-09-07T01:31:04;7.33;;;5.67;;
20776;SDS011;10548;47.504;8.248;2023-09-07T01:33:33;8.70;;;6.40;;
20776;SDS011;10548;47.504;8.248;2023-09-07T01:36:00;11.17;;;5.00;;
20776;SDS011;10548;47.504;8.248;2023-09-07T01:38:28;8.47;;;5.07;;
20776;SDS011;10548;47.504;8.248;2023-09-07T01:40:56;8.10;;;5.03;;
20776;SDS011;10548;47.504;8.248;2023-09-07T01:43:23;8.73;;;5.97;;
20776;SDS011;10548;47.504;8.248;2023-09-07T01:45:51;7.17;;;4.70;;
20776;SDS011;10548;47.504;8.248;2023-09-07T01:48:18;6.67;;;5.30;;
20776;SDS011;10548;47.504;8.248;2023-09-07T01:50:45;13.70;;;5.70;;
20776;SDS011;10548;47.504;8.248;2023-09-07T01:53:13;7.53;;;5.20;;
20776;SDS011;10548;47.504;8.248;2023-09-07T01:55:40;8.23;;;5.10;;
20776;SDS011;10548;47.504;8.248;2023-09-07T01:58:08;7.17;;;5.50;;
20776;SDS011;10548;47.504;8.248;2023-09-07T02:00:38;7.63;;;5.27;;
20776;SDS011;10548;47.504;8.248;2023-09-07T02:03:06;8.90;;;5.37;;
20776;SDS011;10548;47.504;8.248;2023-09-07T02:05:33;7.60;;;5.23;;
20776;SDS011;10548;47.504;8.248;2023-09-07T02:08:00;8.97;;;4.93;;
20776;SDS011;10548;47.504;8.248;2023-09-07T02:10:29;7.17;;;5.40;;
20776;SDS011;10548;47.504;8.248;2023-09-07T02:12:57;7.93;;;5.07;;
20776;SDS011;10548;47.504;8.248;2023-09-07T02:15:24;9.67;;;5.10;;
20776;SDS011;10548;47.504;8.248;2023-09-07T02:17:51;7.57;;;5.40;;
20776;SDS011;10548;47.504;8.248;2023-09-07T02:20:20;7.20;;;4.83;;
20776;SDS011;10548;47.504;8.248;2023-09-07T02:22:48;9.07;;;5.23;;
20776;SDS011;10548;47.504;8.248;2023-09-07T02:25:16;8.47;;;4.77;;
20776;SDS011;10548;47.504;8.248;2023-09-07T02:27:43;8.73;;;4.90;;
20776;SDS011;10548;47.504;8.248;2023-09-07T02:30:11;6.43;;;4.43;;
20776;SDS011;10548;47.504;8.248;2023-09-07T02:32:38;5.30;;;4.60;;
20776;SDS011;10548;47.504;8.248;2023-09-07T02:35:07;6.67;;;5.17;;
20776;SDS011;10548;47.504;8.248;2023-09-07T02:37:36;7.93;;;5.20;;
20776;SDS011;10548;47.504;8.248;2023-09-07T02:40:05;6.63;;;4.97;;
20776;SDS011;10548;47.504;8.248;2023-09-07T02:42:35;8.10;;;5.20;;
20776;SDS011;10548;47.504;8.248;2023-09-07T02:45:02;7.80;;;5.13;;
20776;SDS011;10548;47.504;8.248;2023-09-07T02:47:30;9.97;;;5.23;;
20776;SDS011;10548;47.504;8.248;2023-09-07T02:49:58;6.17;;;4.83;;
20776;SDS011;10548;47.504;8.248;2023-09-07T02:52:25;12.43;;;5.20;;
20776;SDS011;10548;47.504;8.248;2023-09-07T02:54:52;8.20;;;4.60;;
20776;SDS011;10548;47.504;8.248;2023-09-07T02:57:19;8.80;;;5.20;;
20776;SDS011;10548;47.504;8.248;2023-09-07T02:59:47;7.83;;;5.43;;
20776;SDS011;10548;47.504;8.248;2023-09-07T03:02:14;9.17;;;5.70;;
20776;SDS011;10548;47.504;8.248;2023-09-07T03:04:41;5.67;;;4.90;;
20776;SDS011;10548;47.504;8.248;2023-09-07T03:07:08;6.37;;;5.03;;
20776;SDS011;10548;47.504;8.248;2023-09-07T03:09:36;5.00;;;4.43;;
20776;SDS011;10548;47.504;8.248;2023-09-07T03:12:05;8.37;;;5.03;;
20776;SDS011;10548;47.504;8.248;2023-09-07T03:14:33;5.63;;;4.77;;
20776;SDS011;10548;47.504;8.248;2023-09-07T03:17:00;8.37;;;5.00;;
20776;SDS011;10548;47.504;8.248;2023-09-07T03:19:30;8.77;;;4.80;;
20776;SDS011;10548;47.504;8.248;2023-09-07T03:21:57;7.47;;;4.87;;
20776;SDS011;10548;47.504;8.248;2023-09-07T03:24:25;6.87;;;5.30;;
20776;SDS011;10548;47.504;8.248;2023-09-07T03:26:55;9.93;;;5.00;;
20776;SDS011;10548;47.504;8.248;2023-09-07T03:29:22;6.70;;;5.20;;
20776;SDS011;10548;47.504;8.248;2023-09-07T03:31:49;8.13;;;4.93;;
20776;SDS011;10548;47.504;8.248;2023-09-07T03:34:19;11.67;;;5.37;;
20776;SDS011;10548;47.504;8.248;2023-09-07T03:36:46;8.60;;;5.07;;
20776;SDS011;10548;47.504;8.248;2023-09-07T03:39:13;10.67;;;5.00;;
20776;SDS011;10548;47.504;8.248;2023-09-07T03:41:41;6.07;;;4.50;;
20776;SDS011;10548;47.504;8.248;2023-09-07T03:44:08;6.37;;;4.87;;
20776;SDS011;10548;47.504;8.248;2023-09-07T03:46:36;8.27;;;5.00;;
20776;SDS011;10548;47.504;8.248;2023-09-07T03:49:03;12.07;;;4.97;;
20776;SDS011;10548;47.504;8.248;2023-09-07T03:51:30;6.53;;;4.83;;
20776;SDS011;10548;47.504;8.248;2023-09-07T03:53:58;8.13;;;5.10;;
20776;SDS011;10548;47.504;8.248;2023-09-07T03:56:26;7.13;;;4.67;;
20776;SDS011;10548;47.504;8.248;2023-09-07T03:58:53;8.37;;;5.00;;
20776;SDS011;10548;47.504;8.248;2023-09-07T04:01:20;8.60;;;4.63;;
20776;SDS011;10548;47.504;8.248;2023-09-07T04:03:47;9.33;;;4.97;;
20776;SDS011;10548;47.504;8.248;2023-09-07T04:06:15;5.80;;;4.83;;
20776;SDS011;10548;47.504;8.248;2023-09-07T04:08:42;5.80;;;5.13;;
20776;SDS011;10548;47.504;8.248;2023-09-07T04:11:10;9.83;;;5.47;;
20776;SDS011;10548;47.504;8.248;2023-09-07T04:13:37;6.23;;;4.77;;
20776;SDS011;10548;47.504;8.248;2023-09-07T04:16:05;5.73;;;5.00;;
20776;SDS011;10548;47.504;8.248;2023-09-07T04:18:35;7.73;;;5.10;;
20776;SDS011;10548;47.504;8.248;2023-09-07T04:21:08;10.90;;;4.90;;
20776;SDS011;10548;47.504;8.248;2023-09-07T04:23:35;5.80;;;4.73;;
20776;SDS011;10548;47.504;8.248;2023-09-07T04:26:07;8.70;;;4.47;;
20776;SDS011;10548;47.504;8.248;2023-09-07T04:28:36;6.43;;;4.70;;
20776;SDS011;10548;47.504;8.248;2023-09-07T04:31:05;6.20;;;4.73;;
20776;SDS011;10548;47.504;8.248;2023-09-07T04:33:33;10.67;;;4.80;;
20776;SDS011;10548;47.504;8.248;2023-09-07T04:36:11;9.00;;;5.00;;
20776;SDS011;10548;47.504;8.248;2023-09-07T04:38:43;10.43;;;5.30;;
20776;SDS011;10548;47.504;8.248;2023-09-07T04:41:11;8.70;;;4.63;;
20776;SDS011;10548;47.504;8.248;2023-09-07T04:43:40;7.50;;;4.80;;
20776;SDS011;10548;47.504;8.248;2023-09-07T04:46:12;8.80;;;4.53;;
20776;SDS011;10548;47.504;8.248;2023-09-07T04:48:40;8.33;;;5.13;;
20776;SDS011;10548;47.504;8.248;2023-09-07T04:51:08;6.80;;;4.57;;
20776;SDS011;10548;47.504;8.248;2023-09-07T04:53:37;8.97;;;5.07;;
20776;SDS011;10548;47.504;8.248;2023-09-07T04:56:05;8.10;;;4.63;;
20776;SDS011;10548;47.504;8.248;2023-09-07T04:58:33;6.87;;;4.97;;
20776;SDS011;10548;47.504;8.248;2023-09-07T05:01:04;6.03;;;4.73;;
20776;SDS011;10548;47.504;8.248;2023-09-07T05:03:32;6.57;;;4.90;;
20776;SDS011;10548;47.504;8.248;2023-09-07T05:06:00;6.17;;;4.53;;
20776;SDS011;10548;47.504;8.248;2023-09-07T05:08:30;7.50;;;4.00;;
20776;SDS011;10548;47.504;8.248;2023-09-07T05:10:58;7.10;;;4.93;;
20776;SDS011;10548;47.504;8.248;2023-09-07T05:13:26;5.50;;;4.90;;
20776;SDS011;10548;47.504;8.248;2023-09-07T05:15:55;6.53;;;4.70;;
20776;SDS011;10548;47.504;8.248;2023-09-07T05:18:23;7.90;;;5.10;;
20776;SDS011;10548;47.504;8.248;2023-09-07T05:20:50;6.70;;;4.60;;
20776;SDS011;10548;47.504;8.248;2023-09-07T05:23:18;5.30;;;4.20;;
20776;SDS011;10548;47.504;8.248;2023-09-07T05:25:47;9.50;;;4.83;;
20776;SDS011;10548;47.504;8.248;2023-09-07T05:28:16;8.53;;;4.50;;
20776;SDS011;10548;47.504;8.248;2023-09-07T05:30:44;4.87;;;4.37;;
20776;SDS011;10548;47.504;8.248;2023-09-07T05:33:12;7.97;;;4.47;;
20776;SDS011;10548;47.504;8.248;2023-09-07T05:35:40;6.70;;;4.60;;
20776;SDS011;10548;47.504;8.248;2023-09-07T05:38:12;5.47;;;4.63;;
20776;SDS011;10548;47.504;8.248;2023-09-07T05:40:42;6.27;;;5.03;;
20776;SDS011;10548;47.504;8.248;2023-09-07T05:43:11;5.63;;;5.00;;
20776;SDS011;10548;47.504;8.248;2023-09-07T05:45:39;7.73;;;4.77;;
20776;SDS011;10548;47.504;8.248;2023-09-07T05:48:09;4.87;;;4.17;;
20776;SDS011;10548;47.504;8.248;2023-09-07T05:50:37;7.90;;;5.03;;
20776;SDS011;10548;47.504;8.248;2023-09-07T05:53:05;7.10;;;4.70;;
20776;SDS011;10548;47.504;8.248;2023-09-07T05:55:33;9.57;;;4.77;;
20776;SDS011;10548;47.504;8.248;2023-09-07T05:58:04;9.03;;;5.40;;
20776;SDS011;10548;47.504;8.248;2023-09-07T06:00:34;9.90;;;4.40;;
20776;SDS011;10548;47.504;8.248;2023-09-07T06:03:02;7.90;;;4.43;;
20776;SDS011;10548;47.504;8.248;2023-09-07T06:05:30;6.87;;;5.57;;
20776;SDS011;10548;47.504;8.248;2023-09-07T06:07:57;8.73;;;5.33;;
20776;SDS011;10548;47.504;8.248;2023-09-07T06:10:25;6.50;;;5.07;;
20776;SDS011;10548;47.504;8.248;2023-09-07T06:12:56;10.30;;;7.50;;
20776;SDS011;10548;47.504;8.248;2023-09-07T06:15:26;10.67;;;6.77;;
20776;SDS011;10548;47.504;8.248;2023-09-07T06:17:53;13.40;;;6.47;;
20776;SDS011;10548;47.504;8.248;2023-09-07T06:20:21;10.93;;;5.80;;
20776;SDS011;10548;47.504;8.248;2023-09-07T06:22:48;7.53;;;5.90;;
20776;SDS011;10548;47.504;8.248;2023-09-07T06:25:16;7.23;;;5.07;;
20776;SDS011;10548;47.504;8.248;2023-09-07T06:27:44;7.63;;;5.20;;
20776;SDS011;10548;47.504;8.248;2023-09-07T06:30:11;10.67;;;5.30;;
20776;SDS011;10548;47.504;8.248;2023-09-07T06:32:39;8.67;;;5.07;;
20776;SDS011;10548;47.504;8.248;2023-09-07T06:35:09;7.73;;;5.60;;
20776;SDS011;10548;47.504;8.248;2023-09-07T06:37:37;8.07;;;5.40;;
20776;SDS011;10548;47.504;8.248;2023-09-07T06:40:09;10.43;;;5.87;;
20776;SDS011;10548;47.504;8.248;2023-09-07T06:42:37;7.30;;;4.80;;
20776;SDS011;10548;47.504;8.248;2023-09-07T06:45:10;6.77;;;5.13;;
20776;SDS011;10548;47.504;8.248;2023-09-07T06:47:38;6.63;;;4.87;;
20776;SDS011;10548;47.504;8.248;2023-09-07T06:50:07;7.60;;;5.17;;
20776;SDS011;10548;47.504;8.248;2023-09-07T06:52:34;10.60;;;5.53;;
20776;SDS011;10548;47.504;8.248;2023-09-07T06:55:01;5.93;;;5.03;;
20776;SDS011;10548;47.504;8.248;2023-09-07T06:57:29;8.90;;;5.43;;
20776;SDS011;10548;47.504;8.248;2023-09-07T06:59:56;8.80;;;5.40;;
20776;SDS011;10548;47.504;8.248;2023-09-07T07:02:23;8.37;;;6.37;;
20776;SDS011;10548;47.504;8.248;2023-09-07T07:04:51;7.83;;;6.37;;
20776;SDS011;10548;47.504;8.248;2023-09-07T07:07:18;6.97;;;5.80;;
20776;SDS011;10548;47.504;8.248;2023-09-07T07:09:45;8.63;;;6.37;;
20776;SDS011;10548;47.504;8.248;2023-09-07T07:12:13;8.90;;;5.50;;
20776;SDS011;10548;47.504;8.248;2023-09-07T07:14:40;11.63;;;6.40;;
20776;SDS011;10548;47.504;8.248;2023-09-07T07:17:07;11.43;;;6.23;;
20776;SDS011;10548;47.504;8.248;2023-09-07T07:19:35;11.37;;;5.80;;
20776;SDS011;10548;47.504;8.248;2023-09-07T07:22:03;9.10;;;6.17;;
20776;SDS011;10548;47.504;8.248;2023-09-07T07:24:32;10.63;;;5.80;;
20776;SDS011;10548;47.504;8.248;2023-09-07T07:27:00;11.00;;;6.03;;
20776;SDS011;10548;47.504;8.248;2023-09-07T07:29:30;19.83;;;7.33;;
20776;SDS011;10548;47.504;8.248;2023-09-07T07:32:00;10.77;;;5.77;;
20776;SDS011;10548;47.504;8.248;2023-09-07T07:34:27;11.10;;;5.70;;
20776;SDS011;10548;47.504;8.248;2023-09-07T07:36:55;7.27;;;5.47;;
20776;SDS011;10548;47.504;8.248;2023-09-07T07:39:22;9.27;;;5.30;;
20776;SDS011;10548;47.504;8.248;2023-09-07T07:41:50;14.33;;;4.90;;
20776;SDS011;10548;47.504;8.248;2023-09-07T07:44:17;7.37;;;5.33;;
20776;SDS011;10548;47.504;8.248;2023-09-07T07:46:45;8.00;;;5.03;;
20776;SDS011;10548;47.504;8.248;2023-09-07T07:49:14;10.37;;;5.10;;
20776;SDS011;10548;47.504;8.248;2023-09-07T07:51:42;9.03;;;5.33;;
20776;SDS011;10548;47.504;8.248;2023-09-07T07:54:09;6.63;;;4.80;;
20776;SDS011;10548;47.504;8.248;2023-09-07T07:56:38;8.57;;;5.00;;
20776;SDS011;10548;47.504;8.248;2023-09-07T07:59:06;8.20;;;5.23;;
20776;SDS011;10548;47.504;8.248;2023-09-07T08:01:34;9.80;;;5.73;;
20776;SDS011;10548;47.504;8.248;2023-09-07T08:04:04;11.23;;;5.60;;
20776;SDS011;10548;47.504;8.248;2023-09-07T08:06:34;8.93;;;5.57;;
20776;SDS011;10548;47.504;8.248;2023-09-07T08:09:01;9.57;;;5.47;;
20776;SDS011;10548;47.504;8.248;2023-09-07T08:11:29;10.23;;;5.53;;
20776;SDS011;10548;47.504;8.248;2023-09-07T08:13:56;12.57;;;5.80;;
20776;SDS011;10548;47.504;8.248;2023-09-07T08:16:24;7.90;;;5.03;;
20776;SDS011;10548;47.504;8.248;2023-09-07T08:18:51;6.63;;;4.93;;
20776;SDS011;10548;47.504;8.248;2023-09-07T08:21:19;10.20;;;5.30;;
20776;SDS011;10548;47.504;8.248;2023-09-07T08:23:46;8.67;;;4.60;;
20776;SDS011;10548;47.504;8.248;2023-09-07T08:26:15;14.00;;;5.10;;
20776;SDS011;10548;47.504;8.248;2023-09-07T08:28:44;11.63;;;5.33;;
20776;SDS011;10548;47.504;8.248;2023-09-07T08:31:13;17.23;;;5.00;;
20776;SDS011;10548;47.504;8.248;2023-09-07T08:33:48;9.13;;;4.53;;
20776;SDS011;10548;47.504;8.248;2023-09-07T08:36:18;9.33;;;4.77;;
20776;SDS011;10548;47.504;8.248;2023-09-07T08:38:50;7.90;;;4.70;;
20776;SDS011;10548;47.504;8.248;2023-09-07T08:41:20;7.80;;;4.77;;
20776;SDS011;10548;47.504;8.248;2023-09-07T08:43:48;8.07;;;4.73;;
20776;SDS011;10548;47.504;8.248;2023-09-07T08:46:19;9.10;;;4.70;;
20776;SDS011;10548;47.504;8.248;2023-09-07T08:48:47;5.20;;;4.27;;
20776;SDS011;10548;47.504;8.248;2023-09-07T08:51:17;8.13;;;4.67;;
20776;SDS011;10548;47.504;8.248;2023-09-07T08:53:45;9.67;;;4.70;;
20776;SDS011;10548;47.504;8.248;2023-09-07T08:56:13;10.20;;;5.10;;
20776;SDS011;10548;47.504;8.248;2023-09-07T08:58:42;12.40;;;5.20;;
20776;SDS011;10548;47.504;8.248;2023-09-07T09:01:11;13.33;;;4.87;;
20776;SDS011;10548;47.504;8.248;2023-09-07T09:03:39;13.73;;;5.07;;
20776;SDS011;10548;47.504;8.248;2023-09-07T09:06:08;17.30;;;4.93;;
20776;SDS011;10548;47.504;8.248;2023-09-07T09:11:33;12.30;;;4.73;;
20776;SDS011;10548;47.504;8.248;2023-09-07T09:14:04;10.80;;;4.80;;
20776;SDS011;10548;47.504;8.248;2023-09-07T09:16:32;6.63;;;4.70;;
20776;SDS011;10548;47.504;8.248;2023-09-07T09:18:59;13.90;;;4.13;;
20776;SDS011;10548;47.504;8.248;2023-09-07T09:21:27;6.93;;;4.20;;
20776;SDS011;10548;47.504;8.248;2023-09-07T09:23:57;5.33;;;4.23;;
20776;SDS011;10548;47.504;8.248;2023-09-07T09:26:24;6.57;;;4.20;;
20776;SDS011;10548;47.504;8.248;2023-09-07T09:28:56;9.63;;;4.10;;
20776;SDS011;10548;47.504;8.248;2023-09-07T09:31:23;8.43;;;4.43;;
20776;SDS011;10548;47.504;8.248;2023-09-07T09:33:51;8.60;;;4.20;;
20776;SDS011;10548;47.504;8.248;2023-09-07T09:36:19;8.77;;;4.63;;
20776;SDS011;10548;47.504;8.248;2023-09-07T09:38:47;6.23;;;4.40;;
20776;SDS011;10548;47.504;8.248;2023-09-07T09:41:16;7.27;;;4.40;;
20776;SDS011;10548;47.504;8.248;2023-09-07T09:43:45;9.90;;;4.77;;
20776;SDS011;10548;47.504;8.248;2023-09-07T09:46:16;8.33;;;4.63;;
20776;SDS011;10548;47.504;8.248;2023-09-07T09:48:44;6.27;;;4.57;;
20776;SDS011;10548;47.504;8.248;2023-09-07T09:51:11;9.23;;;4.37;;
20776;SDS011;10548;47.504;8.248;2023-09-07T09:53:41;8.30;;;4.63;;
20776;SDS011;10548;47.504;8.248;2023-09-07T09:56:09;6.80;;;4.70;;
20776;SDS011;10548;47.504;8.248;2023-09-07T09:58:37;7.83;;;4.03;;
20776;SDS011;10548;47.504;8.248;2023-09-07T10:01:05;15.77;;;5.13;;
20776;SDS011;10548;47.504;8.248;2023-09-07T10:03:36;6.90;;;4.73;;
20776;SDS011;10548;47.504;8.248;2023-09-07T10:06:20;4.70;;;4.20;;
20776;SDS011;10548;47.504;8.248;2023-09-07T10:08:55;7.97;;;4.20;;
20776;SDS011;10548;47.504;8.248;2023-09-07T10:11:38;7.17;;;4.53;;
20776;SDS011;10548;47.504;8.248;2023-09-07T10:14:06;5.57;;;4.67;;
20776;SDS011;10548;47.504;8.248;2023-09-07T10:16:47;5.90;;;5.10;;
20776;SDS011;10548;47.504;8.248;2023-09-07T10:19:20;7.93;;;4.63;;
20776;SDS011;10548;47.504;8.248;2023-09-07T10:21:52;6.40;;;4.30;;
20776;SDS011;10548;47.504;8.248;2023-09-07T10:24:26;6.03;;;4.20;;
20776;SDS011;10548;47.504;8.248;2023-09-07T10:27:05;7.97;;;4.47;;
20776;SDS011;10548;47.504;8.248;2023-09-07T10:29:43;9.97;;;4.80;;
20776;SDS011;10548;47.504;8.248;2023-09-07T10:32:11;8.47;;;4.57;;
20776;SDS011;10548;47.504;8.248;2023-09-07T10:34:45;5.50;;;4.10;;
20776;SDS011;10548;47.504;8.248;2023-09-07T10:37:13;7.00;;;3.97;;
20776;SDS011;10548;47.504;8.248;2023-09-07T10:39:41;6.60;;;5.00;;
20776;SDS011;10548;47.504;8.248;2023-09-07T10:42:20;8.60;;;4.83;;
20776;SDS011;10548;47.504;8.248;2023-09-07T10:44:51;15.50;;;5.10;;
20776;SDS011;10548;47.504;8.248;2023-09-07T10:47:19;8.13;;;5.40;;
20776;SDS011;10548;47.504;8.248;2023-09-07T10:49:46;11.67;;;5.30;;
20776;SDS011;10548;47.504;8.248;2023-09-07T10:52:14;8.50;;;5.47;;
20776;SDS011;10548;47.504;8.248;2023-09-07T10:54:41;7.77;;;5.70;;
20776;SDS011;10548;47.504;8.248;2023-09-07T10:57:10;9.03;;;5.63;;
20776;SDS011;10548;47.504;8.248;2023-09-07T10:59:44;8.20;;;5.17;;
20776;SDS011;10548;47.504;8.248;2023-09-07T11:02:13;8.00;;;4.60;;
20776;SDS011;10548;47.504;8.248;2023-09-07T11:04:42;22.73;;;5.80;;
20776;SDS011;10548;47.504;8.248;2023-09-07T11:07:10;5.77;;;5.20;;
20776;SDS011;10548;47.504;8.248;2023-09-07T11:09:41;7.13;;;5.40;;
20776;SDS011;10548;47.504;8.248;2023-09-07T11:12:12;10.60;;;5.30;;
20776;SDS011;10548;47.504;8.248;2023-09-07T11:14:42;7.37;;;5.10;;
20776;SDS011;10548;47.504;8.248;2023-09-07T11:17:10;13.73;;;5.70;;
20776;SDS011;10548;47.504;8.248;2023-09-07T11:19:37;7.80;;;6.67;;
20776;SDS011;10548;47.504;8.248;2023-09-07T11:22:04;6.80;;;5.43;;
20776;SDS011;10548;47.504;8.248;2023-09-07T11:24:32;6.73;;;5.27;;
20776;SDS011;10548;47.504;8.248;2023-09-07T11:27:01;9.27;;;4.87;;
20776;SDS011;10548;47.504;8.248;2023-09-07T11:29:31;6.53;;;5.00;;
20776;SDS011;10548;47.504;8.248;2023-09-07T11:32:08;5.77;;;4.90;;
20776;SDS011;10548;47.504;8.248;2023-09-07T11:34:48;9.47;;;4.90;;
20776;SDS011;10548;47.504;8.248;2023-09-07T11:37:22;6.63;;;4.80;;
20776;SDS011;10548;47.504;8.248;2023-09-07T11:39:51;7.27;;;4.97;;
20776;SDS011;10548;47.504;8.248;2023-09-07T11:42:18;6.27;;;4.57;;
20776;SDS011;10548;47.504;8.248;2023-09-07T11:44:45;7.70;;;5.13;;
20776;SDS011;10548;47.504;8.248;2023-09-07T11:47:12;8.83;;;4.20;;
20776;SDS011;10548;47.504;8.248;2023-09-07T11:49:41;7.20;;;3.83;;
20776;SDS011;10548;47.504;8.248;2023-09-07T11:52:08;5.63;;;3.90;;
20776;SDS011;10548;47.504;8.248;2023-09-07T11:54:35;6.68;;;4.05;;
20776;SDS011;10548;47.504;8.248;2023-09-07T11:57:04;8.07;;;3.77;;
20776;SDS011;10548;47.504;8.248;2023-09-07T11:59:31;4.23;;;3.83;;
20776;SDS011;10548;47.504;8.248;2023-09-07T12:02:13;5.47;;;3.13;;
20776;SDS011;10548;47.504;8.248;2023-09-07T12:04:41;6.53;;;3.83;;
20776;SDS011;10548;47.504;8.248;2023-09-07T12:07:09;8.55;;;3.65;;
20776;SDS011;10548;47.504;8.248;2023-09-07T12:09:37;13.90;;;4.43;;
20776;SDS011;10548;47.504;8.248;2023-09-07T12:12:04;4.50;;;4.07;;
20776;SDS011;10548;47.504;8.248;2023-09-07T12:14:31;5.85;;;3.90;;
20776;SDS011;10548;47.504;8.248;2023-09-07T12:16:58;10.73;;;4.40;;
20776;SDS011;10548;47.504;8.248;2023-09-07T12:19:26;5.05;;;3.40;;
20776;SDS011;10548;47.504;8.248;2023-09-07T12:21:54;4.97;;;4.00;;
20776;SDS011;10548;47.504;8.248;2023-09-07T12:24:21;8.35;;;4.75;;
20776;SDS011;10548;47.504;8.248;2023-09-07T12:26:49;3.67;;;3.17;;
20776;SDS011;10548;47.504;8.248;2023-09-07T12:29:16;5.43;;;4.32;;
20776;SDS011;10548;47.504;8.248;2023-09-07T12:31:43;7.22;;;4.10;;
20776;SDS011;10548;47.504;8.248;2023-09-07T12:34:10;6.80;;;4.07;;
20776;SDS011;10548;47.504;8.248;2023-09-07T12:36:37;5.78;;;4.20;;
20776;SDS011;10548;47.504;8.248;2023-09-07T12:39:05;5.88;;;3.78;;
20776;SDS011;10548;47.504;8.248;2023-09-07T12:41:32;7.35;;;4.10;;
20776;SDS011;10548;47.504;8.248;2023-09-07T12:43:59;8.30;;;4.45;;
20776;SDS011;10548;47.504;8.248;2023-09-07T12:46:26;5.60;;;4.15;;
20776;SDS011;10548;47.504;8.248;2023-09-07T12:48:53;7.07;;;3.95;;
20776;SDS011;10548;47.504;8.248;2023-09-07T12:51:24;5.32;;;4.40;;
20776;SDS011;10548;47.504;8.248;2023-09-07T12:53:51;5.90;;;3.70;;
20776;SDS011;10548;47.504;8.248;2023-09-07T12:56:18;6.95;;;3.65;;
20776;SDS011;10548;47.504;8.248;2023-09-07T12:58:45;6.55;;;4.15;;
20776;SDS011;10548;47.504;8.248;2023-09-07T13:01:12;9.20;;;4.47;;
20776;SDS011;10548;47.504;8.248;2023-09-07T13:03:42;7.13;;;3.75;;
20776;SDS011;10548;47.504;8.248;2023-09-07T13:06:09;6.55;;;3.63;;
20776;SDS011;10548;47.504;8.248;2023-09-07T13:08:37;5.85;;;4.22;;
20776;SDS011;10548;47.504;8.248;2023-09-07T13:11:04;5.53;;;3.80;;
20776;SDS011;10548;47.504;8.248;2023-09-07T13:13:31;9.63;;;3.83;;
20776;SDS011;10548;47.504;8.248;2023-09-07T13:15:58;3.85;;;3.40;;
20776;SDS011;10548;47.504;8.248;2023-09-07T13:18:26;7.63;;;4.20;;
20776;SDS011;10548;47.504;8.248;2023-09-07T13:20:53;10.40;;;4.13;;
20776;SDS011;10548;47.504;8.248;2023-09-07T13:23:26;9.65;;;4.28;;
20776;SDS011;10548;47.504;8.248;2023-09-07T13:25:54;5.95;;;3.50;;
20776;SDS011;10548;47.504;8.248;2023-09-07T13:28:22;10.55;;;4.65;;
20776;SDS011;10548;47.504;8.248;2023-09-07T13:30:50;7.25;;;3.95;;
20776;SDS011;10548;47.504;8.248;2023-09-07T13:33:17;9.52;;;4.03;;
20776;SDS011;10548;47.504;8.248;2023-09-07T13:35:45;7.05;;;4.10;;
20776;SDS011;10548;47.504;8.248;2023-09-07T13:38:12;4.80;;;3.42;;
20776;SDS011;10548;47.504;8.248;2023-09-07T13:40:39;7.85;;;3.83;;
20776;SDS011;10548;47.504;8.248;2023-09-07T13:43:06;7.45;;;3.80;;
20776;SDS011;10548;47.504;8.248;2023-09-07T13:45:34;7.10;;;4.05;;
20776;SDS011;10548;47.504;8.248;2023-09-07T13:48:01;8.15;;;4.00;;
20776;SDS011;10548;47.504;8.248;2023-09-07T13:50:29;11.13;;;4.10;;
20776;SDS011;10548;47.504;8.248;2023-09-07T13:52:56;11.82;;;4.25;;
20776;SDS011;10548;47.504;8.248;2023-09-07T13:55:23;6.35;;;4.13;;
20776;SDS011;10548;47.504;8.248;2023-09-07T13:57:51;7.72;;;3.60;;
20776;SDS011;10548;47.504;8.248;2023-09-07T14:00:18;5.68;;;3.20;;
20776;SDS011;10548;47.504;8.248;2023-09-07T14:02:46;4.13;;;3.58;;
20776;SDS011;10548;47.504;8.248;2023-09-07T14:05:13;7.40;;;4.00;;
20776;SDS011;10548;47.504;8.248;2023-09-07T14:07:40;7.75;;;3.50;;
20776;SDS011;10548;47.504;8.248;2023-09-07T14:10:07;5.45;;;3.22;;
20776;SDS011;10548;47.504;8.248;2023-09-07T14:12:37;4.63;;;2.97;;
20776;SDS011;10548;47.504;8.248;2023-09-07T14:15:05;6.22;;;3.70;;
20776;SDS011;10548;47.504;8.248;2023-09-07T14:17:33;6.57;;;3.63;;
20776;SDS011;10548;47.504;8.248;2023-09-07T14:20:00;8.38;;;3.15;;
20776;SDS011;10548;47.504;8.248;2023-09-07T14:22:27;7.60;;;3.53;;
20776;SDS011;10548;47.504;8.248;2023-09-07T14:24:54;10.07;;;3.97;;
20776;SDS011;10548;47.504;8.248;2023-09-07T14:27:21;9.57;;;4.38;;
20776;SDS011;10548;47.504;8.248;2023-09-07T14:29:49;6.07;;;3.38;;
20776;SDS011;10548;47.504;8.248;2023-09-07T14:32:16;3.80;;;2.80;;
20776;SDS011;10548;47.504;8.248;2023-09-07T14:34:43;5.55;;;3.25;;
20776;SDS011;10548;47.504;8.248;2023-09-07T14:37:10;10.68;;;3.47;;
20776;SDS011;10548;47.504;8.248;2023-09-07T14:39:37;4.90;;;2.80;;
20776;SDS011;10548;47.504;8.248;2023-09-07T14:42:04;9.48;;;3.42;;
20776;SDS011;10548;47.504;8.248;2023-09-07T14:44:37;5.55;;;3.25;;
20776;SDS011;10548;47.504;8.248;2023-09-07T14:47:05;8.95;;;3.28;;
20776;SDS011;10548;47.504;8.248;2023-09-07T14:49:34;5.32;;;3.20;;
20776;SDS011;10548;47.504;8.248;2023-09-07T14:52:01;6.72;;;3.42;;
20776;SDS011;10548;47.504;8.248;2023-09-07T14:54:28;5.70;;;3.22;;
20776;SDS011;10548;47.504;8.248;2023-09-07T14:56:55;4.32;;;3.40;;